createdAt,value
2023-02-18T00:00:35.875Z,9.40
2023-02-18T00:03:05.632Z,9.97
2023-02-18T00:05:35.379Z,10.43
2023-02-18T00:08:05.136Z,11.53
2023-02-18T00:10:34.871Z,11.27
2023-02-18T00:13:04.617Z,10.80
2023-02-18T00:15:37.911Z,13.80
2023-02-18T00:18:08.569Z,11.47
2023-02-18T00:20:38.743Z,15.27
2023-02-18T00:23:08.539Z,10.87
2023-02-18T00:25:38.319Z,15.60
2023-02-18T00:28:08.202Z,13.10
2023-02-18T00:30:43.671Z,10.20
2023-02-18T00:33:13.457Z,10.27
2023-02-18T00:35:43.192Z,15.37
2023-02-18T00:38:12.961Z,10.03
2023-02-18T00:40:43.660Z,13.17
2023-02-18T00:43:13.778Z,12.13
2023-02-18T00:45:46.115Z,14.97
2023-02-18T00:48:15.872Z,8.97
2023-02-18T00:50:45.636Z,12.10
2023-02-18T00:53:15.479Z,13.60
2023-02-18T00:55:47.955Z,14.10
2023-02-18T00:58:18.760Z,12.83
2023-02-18T01:00:51.460Z,11.67
2023-02-18T01:03:22.628Z,10.53
2023-02-18T01:05:53.041Z,8.57
2023-02-18T01:08:24.124Z,11.70
2023-02-18T01:10:57.976Z,6.87
2023-02-18T01:13:28.611Z,6.50
2023-02-18T01:16:01.131Z,10.30
2023-02-18T01:18:31.227Z,10.20
2023-02-18T01:21:01.409Z,7.27
2023-02-18T01:23:31.574Z,10.57
2023-02-18T01:26:01.571Z,14.57
2023-02-18T01:28:31.325Z,8.43
2023-02-18T01:31:08.454Z,15.07
2023-02-18T01:33:38.650Z,7.87
2023-02-18T01:36:10.680Z,7.03
2023-02-18T01:38:41.092Z,10.23
2023-02-18T01:41:11.461Z,10.77
2023-02-18T01:43:41.607Z,9.33
2023-02-18T01:46:20.714Z,11.27
2023-02-18T01:48:54.736Z,9.43
2023-02-18T01:51:29.147Z,9.63
2023-02-18T01:54:03.586Z,10.17
2023-02-18T01:56:38.363Z,11.40
2023-02-18T01:59:11.888Z,10.37
2023-02-18T02:01:46.547Z,10.13
2023-02-18T02:04:16.818Z,10.57
2023-02-18T02:06:46.700Z,10.90
2023-02-18T02:09:19.004Z,9.90
2023-02-18T02:12:16.911Z,8.50
2023-02-18T02:15:12.474Z,11.20
2023-02-18T02:17:57.193Z,8.87
2023-02-18T02:21:02.025Z,12.53
2023-02-18T02:24:05.407Z,7.40
2023-02-18T02:27:07.136Z,9.93
2023-02-18T02:30:31.140Z,10.27
2023-02-18T02:33:32.785Z,11.17
2023-02-18T02:36:12.604Z,6.93
2023-02-18T02:38:50.408Z,7.37
2023-02-18T02:41:30.992Z,7.60
2023-02-18T02:44:10.402Z,10.73
2023-02-18T02:46:44.130Z,6.00
2023-02-18T02:49:26.127Z,9.97
2023-02-18T02:52:04.606Z,6.13
2023-02-18T02:54:34.510Z,8.27
2023-02-18T02:57:10.835Z,6.27
2023-02-18T02:59:44.370Z,9.13
2023-02-18T03:02:31.681Z,7.80
2023-02-18T03:05:18.193Z,9.00
2023-02-18T03:08:07.611Z,8.93
2023-02-18T03:10:48.712Z,6.17
2023-02-18T03:13:28.996Z,12.30
2023-02-18T03:16:02.278Z,7.90
2023-02-18T03:18:40.184Z,7.87
2023-02-18T03:21:13.310Z,7.23
2023-02-18T03:23:52.539Z,8.27
2023-02-18T03:26:23.951Z,8.00
2023-02-18T03:28:57.189Z,9.50
2023-02-18T03:31:31.421Z,7.97
2023-02-18T03:34:05.521Z,10.93
2023-02-18T03:36:37.746Z,6.67
2023-02-18T03:39:13.826Z,9.43
2023-02-18T03:41:44.245Z,7.60
2023-02-18T03:44:15.215Z,7.80
2023-02-18T03:46:47.283Z,10.83
2023-02-18T03:49:18.244Z,9.13
2023-02-18T03:51:48.010Z,6.10
2023-02-18T03:54:20.495Z,9.83
2023-02-18T03:56:50.260Z,11.00
2023-02-18T03:59:20.302Z,12.23
2023-02-18T04:01:50.095Z,9.07
2023-02-18T04:04:19.911Z,9.50
2023-02-18T04:06:49.733Z,13.93
2023-02-18T04:09:22.142Z,12.23
2023-02-18T04:11:51.906Z,9.43
2023-02-18T04:14:21.670Z,8.87
2023-02-18T04:16:51.484Z,9.93
2023-02-18T04:19:21.257Z,10.77
2023-02-18T04:21:51.057Z,12.83
2023-02-18T04:24:23.433Z,8.33
2023-02-18T04:26:53.197Z,8.07
2023-02-18T04:29:22.966Z,7.83
2023-02-18T04:31:52.826Z,6.80
2023-02-18T04:34:22.616Z,8.50
2023-02-18T04:36:52.400Z,8.57
2023-02-18T04:39:24.759Z,8.67
2023-02-18T04:41:54.487Z,11.63
2023-02-18T04:44:24.256Z,8.77
2023-02-18T04:46:54.025Z,7.47
2023-02-18T04:49:23.795Z,8.13
2023-02-18T04:51:53.571Z,7.27
2023-02-18T04:54:25.942Z,6.33
2023-02-18T04:56:55.932Z,8.37
2023-02-18T04:59:25.680Z,7.63
2023-02-18T05:01:55.468Z,6.73
2023-02-18T05:04:25.293Z,9.00
2023-02-18T05:06:55.102Z,5.93
2023-02-18T05:09:27.524Z,4.93
2023-02-18T05:11:57.281Z,8.77
2023-02-18T05:14:27.042Z,7.73
2023-02-18T05:16:56.802Z,6.40
2023-02-18T05:19:26.559Z,8.60
2023-02-18T05:21:56.323Z,6.10
2023-02-18T05:24:28.716Z,7.17
2023-02-18T05:26:58.545Z,5.53
2023-02-18T05:29:28.336Z,8.23
2023-02-18T05:31:58.176Z,6.87
2023-02-18T05:34:28.043Z,8.23
2023-02-18T05:36:57.804Z,12.33
2023-02-18T05:39:30.264Z,11.40
2023-02-18T05:42:00.059Z,16.10
2023-02-18T05:44:35.974Z,10.60
2023-02-18T05:47:11.015Z,14.47
2023-02-18T05:49:42.619Z,16.70
2023-02-18T05:52:13.430Z,16.73
2023-02-18T05:54:46.525Z,17.93
2023-02-18T05:57:16.879Z,21.77
2023-02-18T05:59:46.644Z,18.77
2023-02-18T06:02:16.501Z,21.13
2023-02-18T06:04:46.260Z,21.37
2023-02-18T06:07:16.000Z,18.90
2023-02-18T06:09:48.530Z,20.20
2023-02-18T06:12:18.348Z,21.40
2023-02-18T06:14:48.260Z,22.13
2023-02-18T06:17:18.939Z,22.53
2023-02-18T06:19:49.258Z,21.07
2023-02-18T06:22:19.103Z,21.43
2023-02-18T06:24:51.512Z,17.00
2023-02-18T06:27:21.286Z,18.40
2023-02-18T06:29:51.076Z,15.87
2023-02-18T06:32:21.020Z,15.83
2023-02-18T06:34:50.926Z,16.93
2023-02-18T06:37:20.703Z,17.50
2023-02-18T06:39:53.113Z,17.10
2023-02-18T06:42:22.859Z,14.93
2023-02-18T06:44:52.671Z,15.97
2023-02-18T06:47:22.451Z,16.40
2023-02-18T06:49:52.245Z,17.80
2023-02-18T06:52:22.101Z,19.97
2023-02-18T06:54:54.481Z,20.30
2023-02-18T06:57:24.264Z,21.17
2023-02-18T06:59:54.018Z,19.20
2023-02-18T07:02:23.786Z,26.47
2023-02-18T07:04:53.572Z,27.57
2023-02-18T07:07:23.311Z,27.40
2023-02-18T07:09:55.728Z,28.83
2023-02-18T07:12:25.523Z,28.10
2023-02-18T07:14:55.391Z,29.63
2023-02-18T07:17:25.195Z,30.10
2023-02-18T07:19:55.934Z,30.73
2023-02-18T07:22:25.991Z,29.60
2023-02-18T07:24:58.375Z,21.37
2023-02-18T07:27:28.384Z,21.73
2023-02-18T07:29:58.526Z,24.17
2023-02-18T07:32:28.340Z,23.37
2023-02-18T07:34:58.093Z,22.07
2023-02-18T07:37:27.898Z,21.53
2023-02-18T07:40:00.361Z,19.80
2023-02-18T07:42:30.206Z,20.13
2023-02-18T07:44:59.975Z,18.87
2023-02-18T07:47:29.716Z,22.37
2023-02-18T07:50:05.119Z,21.20
2023-02-18T07:52:35.316Z,19.43
2023-02-18T07:55:08.147Z,18.53
2023-02-18T07:57:57.432Z,17.60
2023-02-18T08:00:27.498Z,15.07
2023-02-18T08:02:57.392Z,17.83
2023-02-18T08:05:27.281Z,16.00
2023-02-18T08:08:00.490Z,17.60
2023-02-18T08:10:32.898Z,15.17
2023-02-18T08:13:02.737Z,13.83
2023-02-18T08:15:32.496Z,13.97
2023-02-18T08:18:02.437Z,15.70
2023-02-18T08:20:32.250Z,15.17
2023-02-18T08:23:02.012Z,17.43
2023-02-18T08:25:34.398Z,11.80
2023-02-18T08:28:04.481Z,15.33
2023-02-18T08:30:34.760Z,13.70
2023-02-18T08:33:04.663Z,15.00
2023-02-18T08:35:34.483Z,12.27
2023-02-18T08:38:04.501Z,12.57
2023-02-18T08:40:46.415Z,13.43
2023-02-18T08:43:17.247Z,14.20
2023-02-18T08:45:47.944Z,13.13
2023-02-18T08:48:20.450Z,12.80
2023-02-18T08:50:50.900Z,12.87
2023-02-18T08:53:21.221Z,12.23
2023-02-18T08:55:53.846Z,13.50
2023-02-18T08:58:23.751Z,13.57
2023-02-18T09:00:53.680Z,9.33
2023-02-18T09:03:23.538Z,12.03
2023-02-18T09:05:53.434Z,9.40
2023-02-18T09:08:23.262Z,11.03
2023-02-18T09:10:59.106Z,10.60
2023-02-18T09:13:29.425Z,10.03
2023-02-18T09:16:01.014Z,11.50
2023-02-18T09:18:30.941Z,12.70
2023-02-18T09:21:01.988Z,10.57
2023-02-18T09:23:34.291Z,9.80
2023-02-18T09:26:07.832Z,12.00
2023-02-18T09:28:38.073Z,13.27
2023-02-18T09:31:09.629Z,12.40
2023-02-18T09:33:40.510Z,12.73
2023-02-18T09:36:11.170Z,10.70
2023-02-18T09:38:41.006Z,12.90
2023-02-18T09:41:20.650Z,10.10
2023-02-18T09:43:53.537Z,10.63
2023-02-18T09:46:26.925Z,13.57
2023-02-18T09:48:57.186Z,12.63
2023-02-18T09:51:26.995Z,14.50
2023-02-18T09:53:56.787Z,17.90
2023-02-18T09:56:32.631Z,8.17
2023-02-18T09:59:06.587Z,13.37
2023-02-18T10:01:39.339Z,9.53
2023-02-18T10:04:18.472Z,8.87
2023-02-18T10:06:50.990Z,13.77
2023-02-18T10:09:24.227Z,12.70
2023-02-18T10:12:00.589Z,11.20
2023-02-18T10:14:31.819Z,9.13
2023-02-18T10:17:02.996Z,12.80
2023-02-18T10:19:37.240Z,11.90
2023-02-18T10:22:09.663Z,11.20
2023-02-18T10:24:43.349Z,11.97
2023-02-18T10:27:23.780Z,12.23
2023-02-18T10:29:54.143Z,10.97
2023-02-18T10:32:26.872Z,17.73
2023-02-18T10:35:03.283Z,15.40
2023-02-18T10:37:49.869Z,13.10
2023-02-18T10:40:24.412Z,17.23
2023-02-18T10:43:09.541Z,14.53
2023-02-18T10:45:47.426Z,17.50
2023-02-18T10:48:36.186Z,14.57
2023-02-18T10:51:15.415Z,11.67
2023-02-18T10:53:48.143Z,13.10
2023-02-18T10:56:38.163Z,18.30
2023-02-18T10:59:23.179Z,14.20
2023-02-18T11:01:58.647Z,15.97
2023-02-18T11:04:31.282Z,12.40
2023-02-18T11:07:07.992Z,14.53
2023-02-18T11:09:46.805Z,15.37
2023-02-18T11:12:20.849Z,15.80
2023-02-18T11:15:09.055Z,15.20
2023-02-18T11:17:40.278Z,12.97
2023-02-18T11:20:26.755Z,12.60
2023-02-18T11:23:01.271Z,17.90
2023-02-18T11:25:35.403Z,14.37
2023-02-18T11:28:08.843Z,16.17
2023-02-18T11:30:43.401Z,16.80
2023-02-18T11:33:21.442Z,13.37
2023-02-18T11:35:53.214Z,19.47
2023-02-18T11:38:28.775Z,15.07
2023-02-18T11:41:00.285Z,14.83
2023-02-18T11:43:33.747Z,15.50
2023-02-18T11:46:18.097Z,14.73
2023-02-18T11:48:48.392Z,14.90
2023-02-18T11:51:20.983Z,18.03
2023-02-18T11:54:00.502Z,14.30
2023-02-18T11:56:33.157Z,15.30
2023-02-18T11:59:04.869Z,16.87
2023-02-18T12:01:49.041Z,18.40
2023-02-18T12:04:21.150Z,10.97
2023-02-18T12:06:58.670Z,13.40
2023-02-18T12:09:34.433Z,18.17
2023-02-18T12:12:09.482Z,15.80
2023-02-18T12:14:39.920Z,15.27
2023-02-18T12:17:36.072Z,18.67
2023-02-18T12:20:50.558Z,15.37
2023-02-18T12:23:28.799Z,13.33
2023-02-18T12:26:08.408Z,18.10
2023-02-18T12:28:55.185Z,21.53
2023-02-18T12:31:44.141Z,17.60
2023-02-18T12:34:32.211Z,18.37
2023-02-18T12:37:14.734Z,19.43
2023-02-18T12:40:02.596Z,19.73
2023-02-18T12:42:47.824Z,17.87
2023-02-18T12:45:42.315Z,11.67
2023-02-18T12:48:27.595Z,14.53
2023-02-18T12:51:21.112Z,13.93
2023-02-18T12:54:09.387Z,18.13
2023-02-18T12:56:59.138Z,13.53
2023-02-18T13:00:01.134Z,15.23
2023-02-18T13:02:49.248Z,18.40
2023-02-18T13:05:29.354Z,16.10
2023-02-18T13:08:14.132Z,14.67
2023-02-18T13:11:06.595Z,12.63
2023-02-18T13:13:40.189Z,19.10
2023-02-18T13:16:14.986Z,14.10
2023-02-18T13:18:50.303Z,15.73
2023-02-18T13:21:20.458Z,16.17
2023-02-18T13:23:56.186Z,17.23
2023-02-18T13:26:28.343Z,13.87
2023-02-18T13:29:13.887Z,16.27
2023-02-18T13:31:53.343Z,19.10
2023-02-18T13:34:31.373Z,17.70
2023-02-18T13:37:13.414Z,17.67
2023-02-18T13:39:52.572Z,13.13
2023-02-18T13:42:43.293Z,15.30
2023-02-18T13:45:29.057Z,15.23
2023-02-18T13:48:00.407Z,14.10
2023-02-18T13:50:35.194Z,12.03
2023-02-18T13:53:33.301Z,17.23
2023-02-18T13:56:13.394Z,18.47
2023-02-18T13:58:46.490Z,14.37
2023-02-18T14:01:42.112Z,10.90
2023-02-18T14:04:39.562Z,14.30
2023-02-18T14:07:47.128Z,15.17
2023-02-18T14:10:38.266Z,11.93
2023-02-18T14:13:40.898Z,13.77
2023-02-18T14:16:12.706Z,12.30
2023-02-18T14:18:58.938Z,11.90
2023-02-18T14:21:43.817Z,11.50
2023-02-18T14:24:15.610Z,11.87
2023-02-18T14:26:50.130Z,17.37
2023-02-18T14:29:33.184Z,15.87
2023-02-18T14:32:06.062Z,15.70
2023-02-18T14:35:11.291Z,15.53
2023-02-18T14:38:07.649Z,14.27
2023-02-18T14:40:52.938Z,18.23
2023-02-18T14:43:48.200Z,15.83
2023-02-18T14:46:35.098Z,13.53
2023-02-18T14:49:20.433Z,14.93
2023-02-18T14:51:52.533Z,18.57
2023-02-18T14:54:26.026Z,14.33
2023-02-18T14:57:00.396Z,22.37
2023-02-18T14:59:34.331Z,16.27
2023-02-18T15:02:06.751Z,23.70
2023-02-18T15:04:36.526Z,16.50
2023-02-18T15:07:08.332Z,25.07
2023-02-18T15:09:38.305Z,16.50
2023-02-18T15:12:10.622Z,19.07
2023-02-18T15:14:43.047Z,16.20
2023-02-18T15:17:21.139Z,17.20
2023-02-18T15:19:54.394Z,20.83
2023-02-18T15:22:25.963Z,17.53
2023-02-18T15:24:57.630Z,17.40
2023-02-18T15:27:30.583Z,16.90
2023-02-18T15:30:02.660Z,15.37
2023-02-18T15:32:35.870Z,18.10
2023-02-18T15:35:17.442Z,20.37
2023-02-18T15:37:48.937Z,20.40
2023-02-18T15:40:19.759Z,13.17
2023-02-18T15:42:53.204Z,11.63
2023-02-18T15:45:25.087Z,14.53
2023-02-18T15:48:00.353Z,17.20
2023-02-18T15:50:33.706Z,13.10
2023-02-18T15:53:09.973Z,17.03
2023-02-18T15:55:44.613Z,13.83
2023-02-18T15:58:20.960Z,14.37
2023-02-18T16:00:53.686Z,14.77
2023-02-18T16:03:28.707Z,17.23
2023-02-18T16:06:13.960Z,20.57
2023-02-18T16:08:43.942Z,20.10
2023-02-18T16:11:16.391Z,19.13
2023-02-18T16:13:53.377Z,20.03
2023-02-18T16:16:33.614Z,21.10
2023-02-18T16:19:07.431Z,12.70
2023-02-18T16:21:42.486Z,13.57
2023-02-18T16:24:28.382Z,10.93
2023-02-18T16:27:01.262Z,11.03
2023-02-18T16:29:43.197Z,15.00
2023-02-18T16:32:13.285Z,19.20
2023-02-18T16:34:48.742Z,20.83
2023-02-18T16:37:42.621Z,15.80
2023-02-18T16:40:28.584Z,20.23
2023-02-18T16:43:00.772Z,18.47
2023-02-18T16:45:37.463Z,19.87
2023-02-18T16:48:08.120Z,15.23
2023-02-18T16:50:41.083Z,20.87
2023-02-18T16:53:10.862Z,19.70
2023-02-18T16:55:40.777Z,18.47
2023-02-18T16:58:10.707Z,17.43
2023-02-18T17:00:41.351Z,15.87
2023-02-18T17:03:12.763Z,24.83
2023-02-18T17:05:45.257Z,16.30
2023-02-18T17:08:23.231Z,17.23
2023-02-18T17:10:54.771Z,14.53
2023-02-18T17:13:29.957Z,14.07
2023-02-18T17:16:01.376Z,16.77
2023-02-18T17:18:31.981Z,17.80
2023-02-18T17:21:04.443Z,17.57
2023-02-18T17:23:36.749Z,24.60
2023-02-18T17:26:12.037Z,16.03
2023-02-18T17:28:41.804Z,18.30
2023-02-18T17:31:17.261Z,14.53
2023-02-18T17:33:47.595Z,13.97
2023-02-18T17:36:20.024Z,14.53
2023-02-18T17:38:49.971Z,13.03
2023-02-18T17:41:20.308Z,19.83
2023-02-18T17:43:50.102Z,22.90
2023-02-18T17:46:21.481Z,14.17
2023-02-18T17:48:51.321Z,16.47
2023-02-18T17:51:27.892Z,18.87
2023-02-18T17:53:58.324Z,24.77
2023-02-18T17:56:28.141Z,19.33
2023-02-18T17:58:58.010Z,19.33
2023-02-18T18:01:27.938Z,18.77
2023-02-18T18:03:57.716Z,23.17
2023-02-18T18:06:30.265Z,20.63
2023-02-18T18:09:00.015Z,13.63
2023-02-18T18:11:29.858Z,18.67
2023-02-18T18:13:59.978Z,15.77
2023-02-18T18:16:29.827Z,18.33
2023-02-18T18:18:59.600Z,19.80
2023-02-18T18:21:36.131Z,18.30
2023-02-18T18:24:06.552Z,15.30
2023-02-18T18:26:36.340Z,16.63
2023-02-18T18:29:06.192Z,20.50
2023-02-18T18:31:37.632Z,18.13
2023-02-18T18:34:07.528Z,16.23
2023-02-18T18:36:39.978Z,18.30
2023-02-18T18:39:09.899Z,18.27
2023-02-18T18:41:39.815Z,17.23
2023-02-18T18:44:09.775Z,15.73
2023-02-18T18:46:42.082Z,24.20
2023-02-18T18:49:11.924Z,16.93
2023-02-18T18:51:44.443Z,21.70
2023-02-18T18:54:15.302Z,21.40
2023-02-18T18:56:50.310Z,20.20
2023-02-18T18:59:20.079Z,18.60
2023-02-18T19:01:49.902Z,20.37
2023-02-18T19:04:20.711Z,19.93
2023-02-18T19:06:53.091Z,23.00
2023-02-18T19:09:22.929Z,20.33
2023-02-18T19:11:52.693Z,20.77
2023-02-18T19:14:23.023Z,30.50
2023-02-18T19:16:52.777Z,25.77
2023-02-18T19:19:24.739Z,27.13
2023-02-18T19:21:57.109Z,21.80
2023-02-18T19:24:26.937Z,21.07
2023-02-18T19:26:56.748Z,19.80
2023-02-18T19:29:26.488Z,23.83
2023-02-18T19:31:56.291Z,16.90
2023-02-18T19:34:26.058Z,14.80
2023-02-18T19:36:58.529Z,18.37
2023-02-18T19:39:28.304Z,10.53
2023-02-18T19:41:58.153Z,15.30
2023-02-18T19:44:27.972Z,13.37
2023-02-18T19:46:59.171Z,10.83
2023-02-18T19:49:29.191Z,11.07
2023-02-18T19:52:04.251Z,14.17
2023-02-18T19:54:34.638Z,13.63
2023-02-18T19:57:05.649Z,10.87
2023-02-18T19:59:36.430Z,15.87
2023-02-18T20:02:07.916Z,10.87
2023-02-18T20:04:37.990Z,13.60
2023-02-18T20:07:10.433Z,11.23
2023-02-18T20:09:40.206Z,14.87
2023-02-18T20:12:11.561Z,14.07
2023-02-18T20:14:43.740Z,20.73
2023-02-18T20:17:14.126Z,10.13
2023-02-18T20:19:43.892Z,13.83
2023-02-18T20:22:16.284Z,10.40
2023-02-18T20:24:46.071Z,13.53
2023-02-18T20:27:15.832Z,9.83
2023-02-18T20:29:45.628Z,12.93
2023-02-18T20:32:17.771Z,14.83
2023-02-18T20:34:48.608Z,14.37
2023-02-18T20:37:20.957Z,13.37
2023-02-18T20:39:50.886Z,14.77
2023-02-18T20:42:20.693Z,16.47
2023-02-18T20:44:51.868Z,18.10
2023-02-18T20:47:22.113Z,24.60
2023-02-18T20:49:51.960Z,12.70
2023-02-18T20:52:24.317Z,11.40
2023-02-18T20:54:54.107Z,14.53
2023-02-18T20:57:23.917Z,10.53
2023-02-18T20:59:53.830Z,14.87
2023-02-18T21:02:23.630Z,12.13
2023-02-18T21:04:53.403Z,15.90
2023-02-18T21:07:25.811Z,12.83
2023-02-18T21:09:55.575Z,10.93
2023-02-18T21:12:25.355Z,14.87
2023-02-18T21:14:55.156Z,17.93
2023-02-18T21:17:24.971Z,14.80
2023-02-18T21:19:57.605Z,16.57
2023-02-18T21:22:30.003Z,8.90
2023-02-18T21:25:00.550Z,10.63
2023-02-18T21:27:30.327Z,13.30
2023-02-18T21:30:01.701Z,14.00
2023-02-18T21:32:31.533Z,13.00
2023-02-18T21:35:02.877Z,13.37
2023-02-18T21:37:36.018Z,12.97
2023-02-18T21:40:05.888Z,9.63
2023-02-18T21:42:35.680Z,11.67
2023-02-18T21:45:05.627Z,13.97
2023-02-18T21:47:35.399Z,10.73
2023-02-18T21:50:05.197Z,8.67
2023-02-18T21:52:37.571Z,13.60
2023-02-18T21:55:08.219Z,10.17
2023-02-18T21:57:38.699Z,12.57
2023-02-18T22:00:19.631Z,8.57
2023-02-18T22:03:10.807Z,10.77
2023-02-18T22:05:43.302Z,12.03
2023-02-18T22:08:15.867Z,9.00
2023-02-18T22:10:45.671Z,12.40
2023-02-18T22:13:15.425Z,10.17
2023-02-18T22:15:45.156Z,12.00
2023-02-18T22:18:14.975Z,8.00
2023-02-18T22:20:44.736Z,8.30
2023-02-18T22:23:18.781Z,10.67
2023-02-18T22:25:49.473Z,13.47
2023-02-18T22:28:19.375Z,8.87
2023-02-18T22:30:49.204Z,9.53
2023-02-18T22:33:18.994Z,13.60
2023-02-18T22:35:48.776Z,7.83
2023-02-18T22:38:21.222Z,9.67
2023-02-18T22:40:52.078Z,12.80
2023-02-18T22:43:21.890Z,16.17
2023-02-18T22:45:51.827Z,14.60
2023-02-18T22:48:21.638Z,9.10
2023-02-18T22:50:56.643Z,13.93
2023-02-18T22:53:31.231Z,11.10
2023-02-18T22:56:03.103Z,11.77
2023-02-18T22:58:33.123Z,13.97
2023-02-18T23:01:03.171Z,14.60
2023-02-18T23:03:33.451Z,13.77
2023-02-18T23:06:05.320Z,14.47
2023-02-18T23:08:38.057Z,10.63
2023-02-18T23:11:10.640Z,10.97
2023-02-18T23:13:40.870Z,12.77
2023-02-18T23:16:14.094Z,11.87
2023-02-18T23:18:45.222Z,15.43
2023-02-18T23:21:23.765Z,15.90
2023-02-18T23:23:58.356Z,14.20
2023-02-18T23:26:28.919Z,10.77
2023-02-18T23:28:58.691Z,15.57
2023-02-18T23:31:30.599Z,15.40
2023-02-18T23:34:04.095Z,14.73
2023-02-18T23:36:35.925Z,18.93
2023-02-18T23:39:11.199Z,16.17
2023-02-18T23:41:41.276Z,15.40
2023-02-18T23:44:14.598Z,15.73
2023-02-18T23:46:45.078Z,18.47
2023-02-18T23:49:20.291Z,13.87
2023-02-18T23:51:50.229Z,14.50
2023-02-18T23:54:23.396Z,15.40
2023-02-18T23:56:53.232Z,15.17
2023-02-18T23:59:23.095Z,18.03
